Time;durP1;ratioP1;P1;durP2;ratioP2;P2;SDS_P1;SDS_P2;PMS_P1;PMS_P2;Temp;Humidity;BMP_temperature;BMP_pressure;BME280_temperature;BME280_humidity;BME280_pressure;Samples;Min_cycle;Max_cycle;Signal;HPM_P1;HPM_P2
2023/06/15 00:00:23;;;;;;;7.60;2.60;;;;;;;16.92;65.39;101293.78;5154705;27;20430;-70
2023/06/15 00:02:50;;;;;;;6.07;1.83;;;;;;;16.88;65.12;101291.69;5154963;27;20432;-70
2023/06/15 00:05:17;;;;;;;6.60;1.93;;;;;;;16.77;65.69;101290.41;5154443;27;20485;-70
2023/06/15 00:07:44;;;;;;;9.17;2.77;;;;;;;16.81;65.84;101290.56;5157999;27;20533;-70
2023/06/15 00:10:11;;;;;;;6.63;2.27;;;;;;;16.70;66.88;101284.63;5158977;27;20445;-70
2023/06/15 00:12:39;;;;;;;7.03;2.40;;;;;;;16.65;67.80;101288.34;5158938;27;20429;-70
2023/06/15 00:15:06;;;;;;;7.00;2.47;;;;;;;16.70;66.07;101289.31;5158822;27;20829;-70
2023/06/15 00:17:37;;;;;;;6.50;2.30;;;;;;;16.69;67.08;101285.75;5158700;27;20445;-70
2023/06/15 00:20:08;;;;;;;7.87;2.40;;;;;;;16.59;67.57;101286.88;5158768;27;20465;-70
2023/06/15 00:22:34;;;;;;;7.30;2.17;;;;;;;16.51;67.94;101284.16;5158845;27;20428;-70
2023/06/15 00:25:01;;;;;;;7.40;2.23;;;;;;;16.40;68.03;101287.22;5158392;27;20520;-70
2023/06/15 00:27:28;;;;;;;7.80;2.23;;;;;;;16.38;68.44;101280.50;5158873;27;20461;-70
2023/06/15 00:29:56;;;;;;;6.30;2.07;;;;;;;16.27;68.92;101287.41;5158512;27;20433;-70
2023/06/15 00:32:22;;;;;;;7.20;2.37;;;;;;;16.23;69.39;101283.69;5158597;27;20662;-70
2023/06/15 00:34:49;;;;;;;7.20;1.90;;;;;;;16.21;69.32;101275.03;5158451;27;20457;-69
2023/06/15 00:37:16;;;;;;;7.10;2.43;;;;;;;16.07;70.35;101275.16;5158730;27;20434;-71
2023/06/15 00:39:42;;;;;;;8.03;2.70;;;;;;;16.05;70.16;101275.50;5158491;27;20922;-70
2023/06/15 00:42:09;;;;;;;7.60;2.43;;;;;;;16.02;70.98;101280.78;5158466;27;20466;-70
2023/06/15 00:44:36;;;;;;;8.90;2.40;;;;;;;15.95;70.97;101283.22;5157796;27;20474;-70
2023/06/15 00:47:05;;;;;;;7.60;2.43;;;;;;;15.90;71.46;101275.97;5158167;27;20920;-70
2023/06/15 00:49:33;;;;;;;8.43;2.40;;;;;;;15.86;71.84;101277.75;5158255;27;20445;-70
2023/06/15 00:52:01;;;;;;;6.43;2.30;;;;;;;15.75;72.34;101274.50;5158079;27;21035;-70
2023/06/15 00:54:28;;;;;;;11.13;3.13;;;;;;;15.71;72.07;101278.97;5157701;27;20457;-70
2023/06/15 00:56:56;;;;;;;10.40;3.00;;;;;;;15.70;72.44;101274.66;5157731;27;20525;-69
2023/06/15 00:59:23;;;;;;;6.40;1.60;;;;;;;15.57;72.63;101281.03;5157907;27;20433;-70
2023/06/15 01:01:54;;;;;;;6.37;2.10;;;;;;;15.59;72.87;101278.78;5157855;27;20438;-70
2023/06/15 01:04:25;;;;;;;7.47;2.60;;;;;;;15.55;72.94;101281.34;5157820;27;20484;-70
2023/06/15 01:06:56;;;;;;;7.30;2.10;;;;;;;15.41;73.95;101282.59;5157372;27;20820;-70
2023/06/15 01:09:25;;;;;;;10.00;2.73;;;;;;;15.37;74.54;101282.41;5157468;27;20432;-70
2023/06/15 01:11:55;;;;;;;6.20;1.93;;;;;;;15.37;74.36;101294.13;5157392;27;20932;-70
2023/06/15 01:14:24;;;;;;;6.90;2.90;;;;;;;15.41;74.53;101283.41;5157554;27;20461;-70
2023/06/15 01:16:54;;;;;;;7.93;2.40;;;;;;;15.37;74.63;101285.94;5157608;27;20796;-70
2023/06/15 01:19:39;;;;;;;9.70;2.30;;;;;;;15.41;74.57;101283.41;5156975;27;20825;-70
2023/06/15 01:22:20;;;;;;;7.57;2.30;;;;;;;15.38;73.81;101279.38;5157770;27;20510;-70
2023/06/15 01:24:57;;;;;;;8.50;3.17;;;;;;;15.37;72.47;101276.97;5157432;27;20813;-70
2023/06/15 01:27:25;;;;;;;8.57;2.07;;;;;;;15.33;72.73;101278.72;5157254;27;20505;-70
2023/06/15 01:29:54;;;;;;;8.73;2.90;;;;;;;15.19;75.17;101280.75;5157072;27;20433;-70
2023/06/15 01:32:21;;;;;;;8.90;2.33;;;;;;;15.07;76.35;101279.41;5157488;27;20537;-71
2023/06/15 01:34:49;;;;;;;9.20;2.30;;;;;;;15.16;75.75;101278.63;5156758;27;20469;-70
2023/06/15 01:37:15;;;;;;;5.97;2.27;;;;;;;15.19;75.85;101273.38;5157196;27;20462;-70
2023/06/15 01:39:42;;;;;;;7.60;2.13;;;;;;;15.19;76.16;101275.28;5156833;27;20434;-70
2023/06/15 01:42:10;;;;;;;6.37;2.53;;;;;;;15.19;76.27;101273.38;5157023;27;20441;-70
2023/06/15 01:44:39;;;;;;;13.00;3.20;;;;;;;15.17;76.85;101281.03;5156881;27;20988;-70
2023/06/15 01:47:07;;;;;;;7.40;2.27;;;;;;;15.07;77.84;101275.88;5156842;27;21057;-70
2023/06/15 01:49:35;;;;;;;7.43;2.77;;;;;;;15.04;77.43;101281.94;5156977;27;20433;-70
2023/06/15 01:52:01;;;;;;;8.47;2.70;;;;;;;15.05;77.35;101270.75;5156575;27;20442;-70
2023/06/15 01:54:28;;;;;;;6.90;2.70;;;;;;;15.04;77.86;101274.56;5156461;27;20831;-70
2023/06/15 01:56:55;;;;;;;7.50;2.43;;;;;;;15.04;77.92;101271.03;5156495;27;21026;-70
2023/06/15 01:59:21;;;;;;;8.93;3.40;;;;;;;14.97;78.53;101267.97;5156419;27;20437;-70
2023/06/15 02:01:49;;;;;;;8.47;2.63;;;;;;;14.94;78.41;101269.38;5156404;27;20486;-70
2023/06/15 02:04:16;;;;;;;6.83;2.80;;;;;;;14.98;78.18;101269.56;5156632;27;20497;-70
2023/06/15 02:06:42;;;;;;;8.67;2.87;;;;;;;15.02;77.50;101265.09;5156557;27;20473;-70
2023/06/15 02:09:09;;;;;;;10.00;3.50;;;;;;;15.06;77.22;101266.09;5156573;27;20433;-70
2023/06/15 02:11:36;;;;;;;8.80;2.90;;;;;;;14.93;78.67;101267.78;5156250;27;20442;-70
2023/06/15 02:14:05;;;;;;;11.70;3.03;;;;;;;14.87;78.72;101269.84;5156373;27;20553;-70
2023/06/15 02:16:32;;;;;;;9.20;3.00;;;;;;;14.83;78.81;101263.41;5156163;27;20438;-70
2023/06/15 02:19:03;;;;;;;10.87;3.80;;;;;;;14.92;78.31;101259.91;5156416;27;20607;-70
2023/06/15 02:21:29;;;;;;;7.30;2.23;;;;;;;14.88;79.05;101260.53;5156414;27;20796;-69
2023/06/15 02:23:56;;;;;;;6.30;2.50;;;;;;;14.87;78.46;101269.84;5156172;27;20441;-70
2023/06/15 02:26:23;;;;;;;7.13;2.30;;;;;;;14.81;79.19;101264.81;5156200;27;20484;-70
2023/06/15 02:28:50;;;;;;;8.10;2.80;;;;;;;14.83;78.59;101263.41;5156220;27;20437;-70
2023/06/15 02:31:16;;;;;;;8.00;2.10;;;;;;;14.80;79.13;101255.84;5157284;27;20865;-70
2023/06/15 02:33:43;;;;;;;8.63;2.87;;;;;;;14.80;79.20;101260.50;5155790;27;20476;-69
2023/06/15 02:36:19;;;;;;;7.13;2.33;;;;;;;14.86;78.73;101257.31;5156079;27;20437;-70
2023/06/15 02:38:46;;;;;;;6.13;2.00;;;;;;;14.86;78.90;101248.31;5156088;27;20460;-70
2023/06/15 02:41:12;;;;;;;7.13;2.90;;;;;;;14.89;78.75;101255.88;5155878;27;20827;-69
2023/06/15 02:43:39;;;;;;;9.63;2.80;;;;;;;14.92;79.05;101255.28;5155678;27;20454;-69
2023/06/15 02:46:06;;;;;;;6.70;2.30;;;;;;;14.92;79.03;101249.81;5155876;27;20485;-69
2023/06/15 02:48:34;;;;;;;9.67;2.60;;;;;;;14.95;78.93;101256.53;5155479;27;21003;-70
2023/06/15 02:51:01;;;;;;;6.83;2.27;;;;;;;14.88;79.39;101249.63;5155770;27;20889;-70
2023/06/15 02:53:28;;;;;;;7.90;2.93;;;;;;;14.94;79.22;101257.69;5155417;27;20469;-70
2023/06/15 02:55:55;;;;;;;9.50;2.70;;;;;;;14.87;79.83;101256.22;5155626;27;20894;-70
2023/06/15 02:58:24;;;;;;;14.30;2.97;;;;;;;15.00;78.76;101261.88;5155321;27;20472;-71
2023/06/15 03:00:51;;;;;;;6.63;2.57;;;;;;;14.98;78.90;101253.19;5155763;27;20450;-70
2023/06/15 03:03:22;;;;;;;6.60;2.60;;;;;;;15.03;79.24;101266.69;5155548;27;20548;-70
2023/06/15 03:05:49;;;;;;;8.73;2.50;;;;;;;15.10;79.58;101258.88;5155364;27;20462;-69
2023/06/15 03:08:16;;;;;;;6.23;2.37;;;;;;;15.17;79.10;101270.13;5155428;27;20442;-70
2023/06/15 03:10:44;;;;;;;6.50;2.30;;;;;;;15.17;78.96;101266.59;5155407;27;20434;-70
2023/06/15 03:13:11;;;;;;;7.03;2.60;;;;;;;15.22;79.29;101259.06;5155035;27;20544;-70
2023/06/15 03:15:38;;;;;;;10.80;3.13;;;;;;;15.22;79.37;101261.00;5155296;27;20494;-70
2023/06/15 03:18:07;;;;;;;9.73;3.10;;;;;;;15.24;79.08;101262.31;5155202;27;20866;-70
2023/06/15 03:20:34;;;;;;;7.67;2.70;;;;;;;15.23;78.96;101270.78;5155272;27;20450;-70
2023/06/15 03:23:01;;;;;;;7.10;1.80;;;;;;;15.16;79.40;101270.44;5155203;27;20482;-70
2023/06/15 03:25:29;;;;;;;6.70;2.50;;;;;;;15.29;79.05;101275.00;5154841;27;20485;-70
2023/06/15 03:27:59;;;;;;;6.73;2.30;;;;;;;15.24;79.50;101284.13;5155002;27;20478;-70
2023/06/15 03:30:26;;;;;;;6.20;2.40;;;;;;;15.30;78.73;101273.88;5154806;27;20488;-70
2023/06/15 03:32:53;;;;;;;9.40;2.30;;;;;;;15.28;78.06;101273.41;5155098;27;20857;-70
2023/06/15 03:35:20;;;;;;;7.33;2.97;;;;;;;15.27;77.52;101267.13;5154631;27;21074;-70
2023/06/15 03:37:47;;;;;;;7.00;2.60;;;;;;;15.26;76.62;101275.63;5154875;27;20440;-70
2023/06/15 03:40:13;;;;;;;9.03;3.03;;;;;;;15.23;76.87;101277.06;5154969;27;20433;-69
2023/06/15 03:42:40;;;;;;;8.63;3.17;;;;;;;15.29;76.53;101269.53;5154319;27;20478;-70
2023/06/15 03:45:09;;;;;;;8.50;2.33;;;;;;;15.24;78.10;101278.69;5154852;27;20464;-69
2023/06/15 03:47:35;;;;;;;7.57;2.60;;;;;;;15.29;79.35;101275.00;5154752;27;20572;-70
2023/06/15 03:50:02;;;;;;;7.70;2.67;;;;;;;15.31;79.27;101267.28;5155353;27;20450;-68
2023/06/15 03:52:32;;;;;;;7.73;2.53;;;;;;;15.23;79.96;101271.63;5154507;27;20802;-67
2023/06/15 03:54:59;;;;;;;7.70;2.63;;;;;;;15.20;79.93;101264.06;5154723;27;20561;-67
2023/06/15 03:57:26;;;;;;;8.73;2.00;;;;;;;15.24;79.80;101265.03;5154752;27;20517;-67
2023/06/15 03:59:52;;;;;;;9.33;2.70;;;;;;;15.15;80.07;101269.66;5154709;27;20451;-67
2023/06/15 04:02:21;;;;;;;7.47;2.30;;;;;;;15.20;80.17;101261.31;5154692;27;20437;-73
2023/06/15 04:04:47;;;;;;;7.20;2.30;;;;;;;15.07;80.91;101264.97;5154612;27;20481;-72
2023/06/15 04:07:17;;;;;;;7.40;3.17;;;;;;;15.03;81.37;101261.25;5154276;27;20478;-69
2023/06/15 04:09:43;;;;;;;7.10;2.20;;;;;;;15.08;81.89;101261.09;5154667;27;20532;-69
2023/06/15 04:12:10;;;;;;;7.33;2.63;;;;;;;15.05;81.31;101259.81;5154648;27;20438;-68
2023/06/15 04:14:37;;;;;;;8.43;2.50;;;;;;;15.03;81.67;101272.16;5154439;27;20877;-68
2023/06/15 04:17:04;;;;;;;8.33;2.43;;;;;;;14.97;81.68;101266.03;5154612;27;20521;-68
2023/06/15 04:19:31;;;;;;;9.43;3.83;;;;;;;15.02;81.83;101276.00;5154607;27;20469;-69
2023/06/15 04:21:58;;;;;;;7.40;2.80;;;;;;;14.93;82.60;101280.63;5154196;27;20525;-72
2023/06/15 04:24:25;;;;;;;6.03;2.20;;;;;;;15.04;82.04;101284.69;5154504;27;20454;-70
2023/06/15 04:26:51;;;;;;;5.60;1.87;;;;;;;15.05;82.19;101284.38;5154472;27;20852;-69
2023/06/15 04:29:18;;;;;;;7.37;2.70;;;;;;;15.08;82.38;101280.19;5154477;27;20437;-69
2023/06/15 04:31:46;;;;;;;6.40;2.23;;;;;;;15.10;82.72;101277.97;5154503;27;20872;-69
2023/06/15 04:34:13;;;;;;;6.57;2.37;;;;;;;15.07;83.75;101284.06;5154388;27;20890;-70
2023/06/15 04:36:41;;;;;;;6.37;2.30;;;;;;;15.01;85.73;101285.31;5154395;27;20520;-69
2023/06/15 04:39:07;;;;;;;8.57;3.27;;;;;;;15.09;84.26;101279.88;5154028;27;20442;-69
2023/06/15 04:41:35;;;;;;;10.23;2.40;;;;;;;15.02;83.55;101287.72;5154680;27;20440;-69
2023/06/15 04:44:01;;;;;;;10.10;3.60;;;;;;;15.00;85.71;101281.75;5153881;27;20473;-69
2023/06/15 04:46:29;;;;;;;9.33;3.33;;;;;;;15.09;85.92;101290.00;5153912;27;20442;-69
2023/06/15 04:48:56;;;;;;;8.50;3.20;;;;;;;15.04;85.63;101285.47;5154254;27;20450;-69
2023/06/15 04:51:22;;;;;;;7.30;2.67;;;;;;;15.02;85.42;101287.72;5154169;27;20469;-69
2023/06/15 04:53:50;;;;;;;7.47;2.60;;;;;;;15.01;86.55;101290.78;5155385;27;21027;-69
2023/06/15 04:56:17;;;;;;;7.20;3.17;;;;;;;15.09;87.35;101284.53;5158022;27;20608;-69
2023/06/15 04:58:44;;;;;;;8.40;2.80;;;;;;;15.10;86.70;101291.63;5157823;27;20529;-69
2023/06/15 05:01:10;;;;;;;7.83;2.40;;;;;;;15.09;87.59;101290.00;5157879;27;20520;-71
2023/06/15 05:03:37;;;;;;;8.73;2.43;;;;;;;15.11;86.27;101288.56;5157567;27;20445;-69
2023/06/15 05:06:03;;;;;;;6.63;2.77;;;;;;;15.10;86.01;101288.91;5157744;27;20458;-70
2023/06/15 05:08:32;;;;;;;7.03;2.70;;;;;;;15.15;85.68;101288.75;5157722;27;20568;-68
2023/06/15 05:11:01;;;;;;;9.30;3.43;;;;;;;15.25;84.93;101296.66;5157744;27;20438;-68
2023/06/15 05:13:28;;;;;;;8.60;2.63;;;;;;;15.27;84.22;101288.97;5157346;27;20441;-69
2023/06/15 05:15:55;;;;;;;8.03;2.90;;;;;;;15.30;82.72;101293.78;5157601;27;20540;-69
2023/06/15 05:18:22;;;;;;;6.73;2.37;;;;;;;15.43;82.24;101288.53;5157842;27;20465;-70
2023/06/15 05:20:48;;;;;;;7.07;2.30;;;;;;;15.58;79.95;101294.38;5157464;27;20927;-69
2023/06/15 05:23:15;;;;;;;6.67;2.20;;;;;;;15.70;79.68;101291.03;5157070;27;20524;-69
2023/06/15 05:25:42;;;;;;;6.50;1.80;;;;;;;15.81;79.92;101297.81;5157428;27;20458;-69
2023/06/15 05:28:10;;;;;;;6.17;2.10;;;;;;;15.96;80.62;101299.28;5157119;27;20564;-69
2023/06/15 05:30:36;;;;;;;7.57;2.40;;;;;;;16.03;78.92;101296.88;5157073;27;20483;-69
2023/06/15 05:33:03;;;;;;;6.50;2.60;;;;;;;16.14;80.71;101300.09;5157189;27;20472;-70
2023/06/15 05:35:30;;;;;;;6.87;2.47;;;;;;;16.27;80.42;101301.06;5156758;27;20972;-70
2023/06/15 05:37:57;;;;;;;8.23;2.70;;;;;;;16.37;78.76;101298.00;5157087;27;20441;-70
2023/06/15 05:40:24;;;;;;;7.43;2.10;;;;;;;16.47;78.25;101299.59;5157085;27;20517;-71
2023/06/15 05:42:51;;;;;;;6.20;1.87;;;;;;;16.56;79.51;101306.69;5156720;27;20461;-70
2023/06/15 05:45:19;;;;;;;8.53;2.90;;;;;;;16.61;79.19;101306.53;5156842;27;20889;-70
2023/06/15 05:47:45;;;;;;;6.90;2.70;;;;;;;16.58;78.20;101303.63;5156862;27;20474;-70
2023/06/15 05:50:12;;;;;;;9.70;3.00;;;;;;;16.68;77.44;101314.22;5156948;27;20473;-70
2023/06/15 05:52:38;;;;;;;6.40;2.20;;;;;;;16.76;77.93;101313.44;5156833;27;20549;-70
2023/06/15 05:55:06;;;;;;;8.70;2.10;;;;;;;16.92;77.91;101308.28;5156707;27;20460;-70
2023/06/15 05:57:34;;;;;;;7.40;2.20;;;;;;;17.04;77.54;101313.03;5156679;27;20438;-70
2023/06/15 06:00:03;;;;;;;7.17;2.13;;;;;;;17.12;76.58;101306.75;5156743;27;20529;-70
2023/06/15 06:02:31;;;;;;;8.33;2.37;;;;;;;17.19;75.64;101307.06;5156763;27;20437;-69
2023/06/15 06:04:58;;;;;;;5.83;2.13;;;;;;;17.29;75.35;101312.16;5155997;27;20489;-70
2023/06/15 06:07:25;;;;;;;5.43;1.70;;;;;;;17.33;74.44;101318.59;5156231;27;21015;-67
2023/06/15 06:09:51;;;;;;;6.57;2.00;;;;;;;17.40;74.89;101313.41;5156168;27;20444;-69
2023/06/15 06:12:18;;;;;;;5.60;1.80;;;;;;;17.45;73.74;101311.63;5156060;27;20911;-67
2023/06/15 06:14:45;;;;;;;6.00;2.00;;;;;;;17.51;72.93;101311.09;5156294;27;20560;-68
2023/06/15 06:17:11;;;;;;;6.50;1.93;;;;;;;17.60;73.76;101306.38;5156209;27;20439;-69
2023/06/15 06:19:39;;;;;;;6.03;1.50;;;;;;;17.68;72.32;101307.47;5155901;27;20943;-69
2023/06/15 06:22:06;;;;;;;5.77;1.73;;;;;;;17.77;71.63;101313.72;5156178;27;20434;-68
2023/06/15 06:24:33;;;;;;;6.50;2.30;;;;;;;17.93;71.15;101305.72;5155566;27;20490;-69
2023/06/15 06:27:00;;;;;;;7.00;1.70;;;;;;;18.10;70.25;101310.28;5155584;27;20444;-68
2023/06/15 06:29:26;;;;;;;7.37;2.40;;;;;;;18.23;69.24;101314.69;5155934;27;20438;-67
2023/06/15 06:31:53;;;;;;;5.13;1.23;;;;;;;18.41;67.54;101318.88;5155996;27;20492;-67
2023/06/15 06:34:19;;;;;;;6.73;1.53;;;;;;;18.53;68.39;101314.59;5155879;27;20462;-67
2023/06/15 06:36:47;;;;;;;5.97;1.97;;;;;;;18.62;66.45;101318.06;5155766;27;20444;-67
2023/06/15 06:39:14;;;;;;;5.63;1.80;;;;;;;18.74;65.55;101315.41;5155714;27;20434;-67
2023/06/15 06:41:41;;;;;;;6.43;1.87;;;;;;;18.85;64.29;101316.56;5155545;27;20525;-67
2023/06/15 06:44:07;;;;;;;6.03;1.90;;;;;;;18.93;65.55;101317.63;5155310;27;21057;-67
2023/06/15 06:46:36;;;;;;;5.87;2.10;;;;;;;19.01;64.74;101319.47;5155375;27;20442;-67
2023/06/15 06:49:02;;;;;;;5.30;1.50;;;;;;;19.08;65.02;101318.91;5155511;27;20500;-67
2023/06/15 06:51:29;;;;;;;5.97;1.90;;;;;;;19.19;64.86;101311.84;5155171;27;20996;-68
2023/06/15 06:53:57;;;;;;;5.97;1.53;;;;;;;19.21;59.05;101309.53;5155506;27;20441;-67
2023/06/15 06:56:26;;;;;;;6.20;1.67;;;;;;;19.23;59.35;101310.00;5155533;27;20528;-68
2023/06/15 06:58:52;;;;;;;7.90;2.30;;;;;;;19.39;59.56;101307.41;5155389;27;20433;-70
2023/06/15 07:01:19;;;;;;;6.40;1.87;;;;;;;19.49;61.89;101306.13;5154992;27;20521;-67
2023/06/15 07:03:45;;;;;;;7.13;1.70;;;;;;;19.51;62.92;101314.81;5155002;27;20444;-67
2023/06/15 07:06:12;;;;;;;7.33;2.20;;;;;;;19.47;60.16;101316.66;5155523;27;20448;-67
2023/06/15 07:08:39;;;;;;;6.17;1.70;;;;;;;19.48;58.96;101310.84;5155489;27;20486;-68
2023/06/15 07:11:07;;;;;;;6.43;1.80;;;;;;;19.54;60.23;101314.16;5155386;27;20472;-68
2023/06/15 07:13:34;;;;;;;4.93;1.63;;;;;;;19.56;59.22;101311.84;5155376;27;20477;-67
2023/06/15 07:16:00;;;;;;;5.03;1.33;;;;;;;19.42;57.05;101317.69;5154500;27;20458;-68
2023/06/15 07:18:27;;;;;;;5.70;1.60;;;;;;;19.40;57.52;101312.53;5155253;27;20430;-67
2023/06/15 07:20:54;;;;;;;5.70;1.60;;;;;;;19.39;57.72;101310.94;5155265;27;20434;-68
2023/06/15 07:23:21;;;;;;;5.80;1.93;;;;;;;19.49;57.77;101317.13;5155204;27;20491;-67
2023/06/15 07:25:48;;;;;;;8.93;1.80;;;;;;;19.55;57.19;101313.78;5154732;27;20461;-67
2023/06/15 07:28:16;;;;;;;5.93;1.50;;;;;;;19.62;56.54;101307.75;5155083;27;20486;-67
2023/06/15 07:30:43;;;;;;;5.90;1.57;;;;;;;19.77;56.25;101301.56;5155164;27;20472;-68
2023/06/15 07:33:10;;;;;;;6.10;1.80;;;;;;;19.93;57.06;101298.91;5155098;27;20442;-67
2023/06/15 07:35:37;;;;;;;7.87;1.87;;;;;;;20.04;58.33;101299.22;5154516;27;21006;-68
2023/06/15 07:38:03;;;;;;;10.20;1.67;;;;;;;20.13;56.42;101289.66;5154861;27;20459;-68
2023/06/15 07:40:30;;;;;;;8.13;2.10;;;;;;;20.23;55.46;101299.41;5154775;27;20845;-67
2023/06/15 07:42:56;;;;;;;5.20;1.50;;;;;;;20.47;56.36;101298.50;5154462;27;20947;-68
2023/06/15 07:45:24;;;;;;;5.93;1.97;;;;;;;20.64;55.83;101295.47;5154682;27;20536;-68
2023/06/15 07:47:52;;;;;;;6.50;2.30;;;;;;;20.89;55.36;101290.63;5154961;27;20474;-68
2023/06/15 07:50:19;;;;;;;5.77;1.90;;;;;;;21.09;55.82;101296.22;5154376;27;20433;-68
2023/06/15 07:52:46;;;;;;;8.17;1.70;;;;;;;21.23;52.84;101296.56;5154652;27;20521;-67
2023/06/15 07:55:12;;;;;;;7.20;1.83;;;;;;;21.24;52.66;101292.66;5154562;27;20497;-68
2023/06/15 07:57:39;;;;;;;5.63;1.73;;;;;;;21.24;51.37;101292.66;5154316;27;20477;-67
2023/06/15 08:00:08;;;;;;;5.33;1.50;;;;;;;21.28;52.37;101299.06;5154298;27;20446;-68
2023/06/15 08:02:36;;;;;;;21.67;2.60;;;;;;;21.35;51.72;101292.97;5154609;27;20438;-68
2023/06/15 08:05:03;;;;;;;6.93;2.20;;;;;;;21.39;51.96;101305.69;5154226;27;20536;-67
2023/06/15 08:07:30;;;;;;;6.93;1.53;;;;;;;21.47;51.73;101303.06;5154185;27;20437;-68
2023/06/15 08:09:56;;;;;;;6.10;1.53;;;;;;;21.51;52.99;101290.19;5154245;27;20989;-67
2023/06/15 08:12:23;;;;;;;5.50;1.33;;;;;;;21.60;51.96;101293.53;5154507;27;20524;-68
2023/06/15 08:14:50;;;;;;;6.93;1.90;;;;;;;21.70;52.20;101295.75;5154512;27;20468;-68
2023/06/15 08:17:16;;;;;;;7.73;2.83;;;;;;;21.82;53.08;101295.63;5154463;27;20540;-68
2023/06/15 08:19:45;;;;;;;5.23;1.53;;;;;;;21.94;54.09;101299.44;5154504;27;20437;-68
2023/06/15 08:22:12;;;;;;;6.03;1.63;;;;;;;21.91;53.15;101290.72;5154474;27;20488;-68
2023/06/15 08:24:39;;;;;;;9.63;2.10;;;;;;;21.96;52.90;101289.63;5154046;27;20456;-68
2023/06/15 08:27:07;;;;;;;6.90;2.30;;;;;;;21.95;52.35;101298.25;5154459;27;20999;-70
2023/06/15 08:29:34;;;;;;;6.30;2.00;;;;;;;21.88;51.99;101296.97;5158586;27;20894;-71
2023/06/15 08:32:01;;;;;;;10.57;2.03;;;;;;;21.99;53.29;101293.63;5160172;27;20441;-70
2023/06/15 08:34:27;;;;;;;5.50;1.70;;;;;;;22.13;53.92;101300.28;5158360;27;20897;-70
2023/06/15 08:36:56;;;;;;;6.10;1.90;;;;;;;22.23;52.96;101290.63;5158399;27;20878;-72
2023/06/15 08:39:22;;;;;;;6.27;1.80;;;;;;;22.48;53.27;101295.84;5158374;27;20437;-71
2023/06/15 08:41:49;;;;;;;9.47;2.33;;;;;;;22.70;52.11;101292.31;5158002;27;20561;-69
2023/06/15 08:44:18;;;;;;;6.57;2.07;;;;;;;22.85;52.10;101290.63;5157952;27;20487;-69
2023/06/15 08:46:46;;;;;;;5.43;1.67;;;;;;;22.89;53.03;101288.72;5157962;27;20528;-68
2023/06/15 08:49:14;;;;;;;7.77;2.33;;;;;;;22.89;50.87;101292.31;5158169;27;20538;-70
2023/06/15 08:51:42;;;;;;;8.50;2.13;;;;;;;23.11;51.71;101295.47;5157901;27;20873;-73
2023/06/15 08:54:11;;;;;;;6.67;2.23;;;;;;;23.11;51.58;101296.25;5158019;27;20457;-71
2023/06/15 08:56:38;;;;;;;5.77;1.70;;;;;;;23.11;52.08;101287.97;5159555;27;20444;-72
2023/06/15 08:59:05;;;;;;;6.47;2.50;;;;;;;23.24;50.02;101287.75;5160535;27;20932;-71
2023/06/15 09:01:33;;;;;;;6.00;1.43;;;;;;;23.12;50.82;101291.53;5158013;27;20441;-71
2023/06/15 09:04:01;;;;;;;6.60;1.90;;;;;;;23.07;51.78;101286.31;5157801;27;20425;-75
2023/06/15 09:06:28;;;;;;;6.97;2.53;;;;;;;22.97;51.25;101289.66;5157831;27;20441;-74
2023/06/15 09:08:55;;;;;;;8.67;2.30;;;;;;;22.91;52.49;101289.97;5157676;27;20520;-75
2023/06/15 09:11:23;;;;;;;7.80;2.07;;;;;;;22.87;51.95;101280.00;5157459;27;20477;-74
2023/06/15 09:13:50;;;;;;;6.70;1.77;;;;;;;22.82;53.63;101292.16;5157371;27;20982;-75
2023/06/15 09:16:17;;;;;;;6.20;2.00;;;;;;;22.76;52.86;101288.09;5157698;27;20461;-75
2023/06/15 09:18:44;;;;;;;5.97;1.87;;;;;;;22.85;52.22;101288.66;5157445;27;20452;-75
2023/06/15 09:21:12;;;;;;;13.53;2.03;;;;;;;22.90;49.74;101285.63;5157769;27;20445;-74
2023/06/15 09:23:41;;;;;;;7.07;2.33;;;;;;;22.98;51.06;101294.84;5157606;27;20434;-75
2023/06/15 09:26:08;;;;;;;6.00;2.13;;;;;;;23.14;50.04;101298.25;5157355;27;20484;-74
2023/06/15 09:28:44;;;;;;;6.00;2.00;;;;;;;23.25;50.37;101298.47;5157180;27;20484;-75
2023/06/15 09:31:11;;;;;;;5.57;2.03;;;;;;;23.51;50.22;101292.16;5157554;27;20426;-75
2023/06/15 09:33:38;;;;;;;6.50;2.33;;;;;;;23.63;50.64;101294.69;5157137;27;20438;-75
2023/06/15 09:36:06;;;;;;;8.37;2.27;;;;;;;23.57;49.40;101295.38;5157381;27;20504;-73
2023/06/15 09:38:40;;;;;;;6.43;1.83;;;;;;;23.65;49.05;101291.59;5156699;27;20940;-73
2023/06/15 09:41:07;;;;;;;5.87;2.20;;;;;;;23.84;49.47;101282.38;5157049;27;20425;-73
2023/06/15 09:43:36;;;;;;;5.90;2.30;;;;;;;24.06;50.13;101286.22;5156695;27;20545;-73
2023/06/15 09:46:05;;;;;;;5.30;1.90;;;;;;;24.05;48.61;101285.41;5157032;27;20549;-72
2023/06/15 09:48:32;;;;;;;7.10;2.30;;;;;;;23.84;48.59;101282.38;5157026;27;20663;-73
2023/06/15 09:51:02;;;;;;;6.60;2.00;;;;;;;23.89;49.00;101285.59;5156759;27;20444;-72
2023/06/15 09:53:30;;;;;;;8.97;2.63;;;;;;;24.01;49.83;101278.25;5156975;27;20870;-72
2023/06/15 09:55:59;;;;;;;5.40;1.87;;;;;;;24.06;50.76;101283.44;5156936;27;20898;-73
2023/06/15 09:58:26;;;;;;;5.50;1.80;;;;;;;24.08;50.46;101281.09;5156910;27;20854;-73
2023/06/15 10:00:57;;;;;;;11.03;2.30;;;;;;;24.02;50.28;101280.63;5156618;27;20954;-73
2023/06/15 10:03:26;;;;;;;7.90;2.63;;;;;;;23.91;49.80;101288.81;5156849;27;20780;-73
2023/06/15 10:05:56;;;;;;;5.60;1.83;;;;;;;23.81;50.36;101289.44;5156699;27;20510;-73
2023/06/15 10:08:26;;;;;;;6.67;2.17;;;;;;;23.76;49.87;101292.53;5156661;27;20484;-73
2023/06/15 10:10:54;;;;;;;6.83;2.37;;;;;;;23.70;49.68;101285.72;5156277;27;20936;-73
2023/06/15 10:13:26;;;;;;;6.50;2.17;;;;;;;23.79;50.24;101285.47;5156237;27;20528;-73
2023/06/15 10:15:58;;;;;;;8.80;3.10;;;;;;;23.84;50.68;101285.13;5156392;27;20532;-73
2023/06/15 10:18:26;;;;;;;7.00;2.00;;;;;;;23.74;49.04;101283.03;5156508;27;20521;-73
2023/06/15 10:20:54;;;;;;;6.10;2.30;;;;;;;23.76;49.48;101284.22;5156173;27;20449;-73
2023/06/15 10:23:25;;;;;;;6.00;1.90;;;;;;;23.65;48.85;101280.53;5156428;27;20474;-73
2023/06/15 10:25:55;;;;;;;5.20;1.83;;;;;;;23.58;49.49;101286.72;5156205;27;20983;-72
2023/06/15 10:28:23;;;;;;;6.40;2.43;;;;;;;23.50;50.82;101279.47;5155838;27;20453;-73
2023/06/15 10:31:01;;;;;;;6.57;2.17;;;;;;;23.38;49.85;101283.25;5156046;27;20932;-73
2023/06/15 10:33:41;;;;;;;7.70;2.63;;;;;;;23.42;50.08;101283.31;5156223;27;20437;-73
2023/06/15 10:36:13;;;;;;;6.57;2.40;;;;;;;23.45;51.44;101284.53;5156328;27;20422;-73
2023/06/15 10:38:47;;;;;;;8.23;2.67;;;;;;;23.57;51.50;101285.13;5156131;27;20446;-73
2023/06/15 10:41:15;;;;;;;8.90;2.70;;;;;;;23.50;49.76;101286.97;5156064;27;20437;-73
2023/06/15 10:43:57;;;;;;;7.27;2.40;;;;;;;23.54;49.98;101279.53;5155456;27;20845;-73
2023/06/15 10:46:29;;;;;;;7.03;2.27;;;;;;;23.51;49.49;101275.56;5156000;27;20422;-73
2023/06/15 10:48:56;;;;;;;6.97;2.23;;;;;;;23.65;50.14;101284.09;5155739;27;20844;-73
2023/06/15 10:51:22;;;;;;;5.90;1.97;;;;;;;23.73;50.13;101285.00;5154541;27;20536;-73
2023/06/15 10:53:49;;;;;;;8.03;2.60;;;;;;;23.78;49.63;101284.66;5155678;27;20437;-74
2023/06/15 10:56:17;;;;;;;6.10;2.03;;;;;;;23.87;47.87;101285.19;5155716;27;20441;-73
2023/06/15 10:58:55;;;;;;;6.17;2.37;;;;;;;23.84;49.05;101285.94;5155347;27;20940;-73
2023/06/15 11:01:23;;;;;;;5.90;2.43;;;;;;;23.82;47.80;101285.53;5155488;27;20974;-73
2023/06/15 11:03:53;;;;;;;8.20;2.10;;;;;;;23.92;47.63;101284.84;5155281;27;20453;-73
2023/06/15 11:06:22;;;;;;;7.30;2.30;;;;;;;24.07;48.06;101280.28;5155530;27;20422;-73
2023/06/15 11:08:50;;;;;;;8.17;2.80;;;;;;;24.27;48.04;101274.63;5155451;27;20477;-74
2023/06/15 11:11:20;;;;;;;5.63;1.87;;;;;;;24.02;49.13;101277.84;5155465;27;20529;-72
2023/06/15 11:14:05;;;;;;;7.53;2.37;;;;;;;24.16;49.43;101275.25;5155411;27;20501;-72
2023/06/15 11:16:33;;;;;;;6.27;2.00;;;;;;;24.17;48.61;101274.09;5155397;27;20457;-73
2023/06/15 11:19:25;;;;;;;6.17;2.07;;;;;;;24.25;49.81;101268.63;5155383;27;20436;-73
2023/06/15 11:21:59;;;;;;;8.00;2.93;;;;;;;24.21;49.48;101268.59;5140731;27;20956;-73
2023/06/15 11:24:26;;;;;;;6.17;2.23;;;;;;;24.24;50.75;101269.81;5155179;27;20466;-73
2023/06/15 11:26:54;;;;;;;7.90;2.40;;;;;;;24.25;51.09;101269.44;5155026;27;20951;-73